createdAt,value
2019-01-21T00:03:43.201Z,-2.9
2019-01-21T00:08:43.213Z,-2.9
2019-01-21T00:13:43.202Z,-2.9
2019-01-21T00:18:43.218Z,-2.9
2019-01-21T00:23:43.210Z,-3
2019-01-21T00:28:43.216Z,-3
2019-01-21T00:33:43.216Z,-3.1
2019-01-21T00:38:43.230Z,-3.1
2019-01-21T00:43:43.230Z,-3.1
2019-01-21T00:48:43.241Z,-3.1
2019-01-21T00:53:43.220Z,-3.1
2019-01-21T00:58:43.227Z,-3.1
2019-01-21T01:03:43.190Z,-3.1
2019-01-21T01:08:43.243Z,-3.1
2019-01-21T01:13:43.253Z,-3.1
2019-01-21T01:18:43.245Z,-3.1
2019-01-21T01:23:43.232Z,-3
2019-01-21T01:28:43.248Z,-3
2019-01-21T01:33:43.226Z,-3
2019-01-21T01:38:43.249Z,-2.9
2019-01-21T01:43:43.257Z,-2.9
2019-01-21T01:48:43.248Z,-2.9
2019-01-21T01:53:43.258Z,-2.8
2019-01-21T01:58:43.447Z,-2.8
2019-01-21T02:03:43.265Z,-2.7
2019-01-21T02:08:43.252Z,-2.7
2019-01-21T02:13:43.265Z,-2.7
2019-01-21T02:18:43.261Z,-2.7
2019-01-21T02:23:43.262Z,-2.7
2019-01-21T02:28:43.281Z,-2.7
2019-01-21T02:33:43.274Z,-2.7
2019-01-21T02:38:43.295Z,-2.7
2019-01-21T02:43:43.291Z,-2.7
2019-01-21T02:48:43.290Z,-2.7
2019-01-21T02:53:43.287Z,-2.7
2019-01-21T02:58:43.311Z,-2.7
2019-01-21T03:03:43.297Z,-2.7
2019-01-21T03:08:43.300Z,-2.7
2019-01-21T03:13:43.303Z,-2.7
2019-01-21T03:18:43.645Z,-2.7
2019-01-21T03:23:43.302Z,-2.7
2019-01-21T03:28:43.301Z,-2.8
2019-01-21T03:33:43.307Z,-2.8
2019-01-21T03:38:43.280Z,-2.8
2019-01-21T03:43:43.319Z,-2.8
2019-01-21T03:48:43.330Z,-2.8
2019-01-21T03:53:43.326Z,-2.8
2019-01-21T03:58:43.345Z,-2.8
2019-01-21T04:03:43.318Z,-2.8
2019-01-21T04:08:43.315Z,-2.8
2019-01-21T04:13:43.328Z,-2.8
2019-01-21T04:18:43.336Z,-2.8
2019-01-21T04:23:43.294Z,-2.9
2019-01-21T04:28:43.341Z,-2.8
2019-01-21T04:33:43.344Z,-2.8
2019-01-21T04:38:43.339Z,-2.8
2019-01-21T04:43:43.352Z,-2.8
2019-01-21T04:48:43.345Z,-2.8
2019-01-21T04:53:43.344Z,-2.8
2019-01-21T04:58:43.353Z,-2.9
2019-01-21T05:03:43.382Z,-3
2019-01-21T05:08:43.377Z,-2.9
2019-01-21T05:13:43.362Z,-2.9
2019-01-21T05:18:43.375Z,-2.9
2019-01-21T05:23:43.377Z,-2.9
2019-01-21T05:28:43.368Z,-2.9
2019-01-21T05:33:43.385Z,-2.9
2019-01-21T05:38:43.393Z,-2.9
2019-01-21T05:43:43.345Z,-2.9
2019-01-21T05:48:48.826Z,-2.9
2019-01-21T05:53:43.388Z,-3
2019-01-21T05:58:43.405Z,-3
2019-01-21T06:03:43.388Z,-3
2019-01-21T06:08:43.393Z,-3.1
2019-01-21T06:13:43.416Z,-3.1
2019-01-21T06:18:43.403Z,-3.1
2019-01-21T06:23:43.394Z,-3.2
2019-01-21T06:28:43.426Z,-3.3
2019-01-21T06:33:43.376Z,-3.4
2019-01-21T06:38:43.400Z,-3.5
2019-01-21T06:43:43.423Z,-3.6
2019-01-21T06:48:43.398Z,-3.7
2019-01-21T06:53:43.418Z,-3.8
2019-01-21T06:58:43.426Z,-3.8
2019-01-21T07:03:43.424Z,-3.8
2019-01-21T07:08:43.436Z,-3.9
2019-01-21T07:13:43.436Z,-3.8
2019-01-21T07:18:43.425Z,-3.8
2019-01-21T07:23:43.453Z,-3.8
2019-01-21T07:28:43.449Z,-3.7
2019-01-21T07:33:43.459Z,-3.6
2019-01-21T07:38:43.430Z,-3.4
2019-01-21T07:43:43.439Z,-3.3
2019-01-21T07:48:43.437Z,-3.2
2019-01-21T07:53:43.449Z,-3.1
2019-01-21T07:58:43.443Z,-3
2019-01-21T08:03:43.465Z,-3
2019-01-21T08:08:43.439Z,-2.9
2019-01-21T08:13:43.447Z,-2.8
2019-01-21T08:18:43.459Z,-2.7
2019-01-21T08:23:43.465Z,-2.7
2019-01-21T08:28:43.467Z,-2.6
2019-01-21T08:33:43.482Z,-2.5
2019-01-21T08:38:43.456Z,-2.4
2019-01-21T08:43:43.495Z,-2.3
2019-01-21T08:48:43.471Z,-2.3
2019-01-21T08:53:43.472Z,-2.3
2019-01-21T08:58:43.465Z,-2.2
2019-01-21T09:03:43.478Z,-2.2
2019-01-21T09:08:43.499Z,-2.2
2019-01-21T09:13:43.482Z,-2.1
2019-01-21T09:18:43.504Z,-1.9
2019-01-21T09:23:43.509Z,-1.7
2019-01-21T09:28:43.503Z,-1.5
2019-01-21T09:33:43.501Z,-1.3
2019-01-21T09:38:43.543Z,-1.1
2019-01-21T09:43:43.520Z,-1
2019-01-21T09:48:43.518Z,-1
2019-01-21T09:53:43.521Z,-0.9
2019-01-21T09:58:43.522Z,-0.8
2019-01-21T10:03:43.514Z,-0.6
2019-01-21T10:08:43.519Z,-0.6
2019-01-21T10:13:43.518Z,-0.4
2019-01-21T10:18:43.530Z,-0.3
2019-01-21T10:23:43.544Z,-0.2
2019-01-21T10:28:43.523Z,0
2019-01-21T10:33:43.502Z,0
2019-01-21T10:38:43.550Z,0
2019-01-21T10:43:43.561Z,0.2
2019-01-21T10:48:43.640Z,0.3
2019-01-21T10:53:43.541Z,0.4
2019-01-21T10:58:43.551Z,0.5
2019-01-21T11:03:43.489Z,0.5
2019-01-21T11:08:43.554Z,0.6
2019-01-21T11:13:44.342Z,0.6
2019-01-21T11:18:43.555Z,0.7
2019-01-21T11:23:43.555Z,0.8
2019-01-21T11:28:43.565Z,0.8
2019-01-21T11:33:43.562Z,0.8
2019-01-21T11:38:43.592Z,0.9
2019-01-21T11:43:43.528Z,0.8
2019-01-21T11:48:43.593Z,0.9
2019-01-21T11:53:43.552Z,0.9
2019-01-21T11:58:43.548Z,1
2019-01-21T12:03:43.587Z,1.1
2019-01-21T12:08:43.586Z,1.1
2019-01-21T12:13:43.729Z,1.1
2019-01-21T12:18:43.542Z,1.2
2019-01-21T12:23:43.590Z,1.2
2019-01-21T12:28:43.584Z,1.4
2019-01-21T12:33:43.586Z,1.3
2019-01-21T12:38:43.610Z,1.2
2019-01-21T12:43:43.586Z,1.3
2019-01-21T12:48:43.610Z,1.3
2019-01-21T12:53:43.613Z,1.3
2019-01-21T12:58:43.605Z,1.3
2019-01-21T13:03:43.605Z,1.3
2019-01-21T13:08:43.618Z,1.3
2019-01-21T13:13:43.625Z,1.4
2019-01-21T13:18:43.573Z,1.3
2019-01-21T13:23:43.610Z,1.3
2019-01-21T13:28:43.641Z,1.4
2019-01-21T13:33:43.586Z,1.4
2019-01-21T13:38:43.619Z,1.4
2019-01-21T13:43:43.617Z,1.4
2019-01-21T13:48:43.635Z,1.3
2019-01-21T13:53:43.633Z,1.4
2019-01-21T13:58:43.630Z,1.4
2019-01-21T14:03:43.647Z,1.3
2019-01-21T14:08:43.646Z,1.2
2019-01-21T14:13:43.651Z,1.1
2019-01-21T14:18:43.626Z,1
2019-01-21T14:23:43.660Z,0.9
2019-01-21T14:28:43.646Z,0.8
2019-01-21T14:33:43.654Z,0.8
2019-01-21T14:38:43.661Z,0.7
2019-01-21T14:43:43.659Z,0.6
2019-01-21T14:48:43.667Z,0.5
2019-01-21T14:53:43.694Z,0.4
2019-01-21T14:58:43.670Z,0.3
2019-01-21T15:03:43.736Z,0.2
2019-01-21T15:08:43.738Z,0.2
2019-01-21T15:13:43.686Z,0.1
2019-01-21T15:18:43.708Z,0
2019-01-21T15:23:43.695Z,0
2019-01-21T15:28:43.775Z,-0.2
2019-01-21T15:33:43.692Z,-0.3
2019-01-21T15:38:43.871Z,-0.5
2019-01-21T15:43:43.857Z,-0.6
2019-01-21T15:48:43.692Z,-0.7
2019-01-21T15:53:43.785Z,-0.8
2019-01-21T15:58:43.694Z,-0.9
2019-01-21T16:03:43.704Z,-1
2019-01-21T16:08:43.705Z,-1.1
2019-01-21T16:13:43.734Z,-1.2
2019-01-21T16:18:43.748Z,-1.3
2019-01-21T16:23:43.721Z,-1.4
2019-01-21T16:28:43.717Z,-1.5
2019-01-21T16:33:44.412Z,-1.6
2019-01-21T16:38:49.761Z,-1.6
2019-01-21T16:43:43.740Z,-1.8
2019-01-21T16:48:43.729Z,-1.8
2019-01-21T16:53:43.729Z,-1.9
2019-01-21T16:58:43.753Z,-1.9
2019-01-21T17:03:43.697Z,-2
2019-01-21T17:08:43.699Z,-2.1
2019-01-21T17:13:44.912Z,-2.2
2019-01-21T17:18:43.757Z,-2.3
2019-01-21T17:23:43.781Z,-2.3
2019-01-21T17:28:43.711Z,-2.4
2019-01-21T17:33:43.766Z,-2.4
2019-01-21T17:38:43.763Z,-2.5
2019-01-21T17:43:43.768Z,-2.6
2019-01-21T17:48:43.765Z,-2.6
2019-01-21T17:53:43.775Z,-2.7
2019-01-21T17:58:43.784Z,-2.7
2019-01-21T18:03:43.785Z,-2.8
2019-01-21T18:08:43.965Z,-2.9
2019-01-21T18:13:43.791Z,-3
2019-01-21T18:18:43.780Z,-3
2019-01-21T18:23:43.784Z,-3
2019-01-21T18:28:44.271Z,-3
2019-01-21T18:33:43.802Z,-3.1
2019-01-21T18:38:43.798Z,-3.2
2019-01-21T18:43:43.794Z,-3.2
2019-01-21T18:48:43.997Z,-3.3
2019-01-21T18:53:43.818Z,-3.3
2019-01-21T18:58:43.824Z,-3.4
2019-01-21T19:03:43.833Z,-3.4
2019-01-21T19:08:43.817Z,-3.4
2019-01-21T19:13:43.821Z,-3.4
2019-01-21T19:18:43.803Z,-3.4
2019-01-21T19:23:43.840Z,-3.5
2019-01-21T19:28:43.824Z,-3.6
2019-01-21T19:33:43.974Z,-3.6
2019-01-21T19:38:43.824Z,-3.6
2019-01-21T19:43:43.850Z,-3.7
2019-01-21T19:48:44.523Z,-3.8
2019-01-21T19:53:43.847Z,-3.8
2019-01-21T19:58:43.943Z,-3.8
2019-01-21T20:03:43.781Z,-3.9
2019-01-21T20:08:43.832Z,-4
2019-01-21T20:13:43.787Z,-4.1
2019-01-21T20:18:43.856Z,-4.1
2019-01-21T20:23:43.849Z,-4.2
2019-01-21T20:28:44.298Z,-4.2
2019-01-21T20:33:43.806Z,-4.3
2019-01-21T20:38:43.846Z,-4.3
2019-01-21T20:43:43.864Z,-4.4
2019-01-21T20:48:43.869Z,-4.5
2019-01-21T20:53:43.871Z,-4.4
2019-01-21T20:58:43.850Z,-4.5
2019-01-21T21:03:43.894Z,-4.5
2019-01-21T21:08:43.884Z,-4.5
2019-01-21T21:13:43.879Z,-4.6
2019-01-21T21:18:45.007Z,-4.7
2019-01-21T21:23:43.876Z,-4.7
2019-01-21T21:28:43.894Z,-4.8
2019-01-21T21:33:43.961Z,-4.8
2019-01-21T21:38:43.852Z,-4.9
2019-01-21T21:43:43.879Z,-4.9
2019-01-21T21:48:43.888Z,-5
2019-01-21T21:53:43.906Z,-5
2019-01-21T21:58:43.873Z,-5
2019-01-21T22:03:43.903Z,-5
2019-01-21T22:08:44.092Z,-5.1
2019-01-21T22:13:43.903Z,-5.1
2019-01-21T22:18:43.956Z,-5.1
2019-01-21T22:23:43.917Z,-5.1
2019-01-21T22:28:43.892Z,-5.1
2019-01-21T22:33:43.921Z,-5.2
2019-01-21T22:38:43.928Z,-5.2
2019-01-21T22:43:43.915Z,-5.2
2019-01-21T22:48:43.924Z,-5.3
2019-01-21T22:53:44.485Z,-5.3
2019-01-21T22:58:43.872Z,-5.3
2019-01-21T23:03:43.943Z,-5.3
2019-01-21T23:08:44.154Z,-5.4
2019-01-21T23:13:43.973Z,-5.4
2019-01-21T23:18:43.935Z,-5.4
2019-01-21T23:23:43.937Z,-5.5
2019-01-21T23:28:43.940Z,-5.5
2019-01-21T23:33:43.950Z,-5.5
2019-01-21T23:38:43.951Z,-5.5
2019-01-21T23:43:43.942Z,-5.6
2019-01-21T23:48:43.949Z,-5.6
2019-01-21T23:53:43.950Z,-5.7
2019-01-21T23:58:43.949Z,-5.7
